EST,Max TemperatureF,Mean TemperatureF,Min TemperatureF,Max Dew PointF,MeanDew PointF,Min DewpointF,Max Humidity, Mean Humidity, Min Humidity, Max Sea Level PressureIn, Mean Sea Level PressureIn, Min Sea Level PressureIn, Max VisibilityMiles, Mean VisibilityMiles, Min VisibilityMiles, Max Wind SpeedMPH, Mean Wind SpeedMPH, Max Gust SpeedMPH,PrecipitationIn, CloudCover, Events, WindDirDegrees
2011-12-1,47,38,29,34,25,20,78,58,37,30.27,30.24,30.17,10,9,6,14,8,21,0.01,4,Rain,221
2011-12-2,41,35,28,34,28,24,96,75,54,30.49,30.37,30.23,10,7,2,13,5,17,0.08,5,Rain-Snow,338
2011-12-3,49,39,29,41,34,25,92,77,61,30.43,30.26,30.02,10,7,4,21,11,31,0.13,6,Rain,164
2011-12-4,51,46,40,48,43,35,93,77,61,30.22,30.01,29.92,10,7,2,21,13,31,0.41,8,Rain,222
2011-12-5,40,37,33,36,32,23,92,78,64,30.32,30.25,30.19,10,10,10,16,9,18,0.00,7,,20
2011-12-6,33,30,26,23,21,19,75,69,63,30.31,30.23,30.14,10,10,10,13,6,16,0.00,6,,330
2011-12-7,38,32,25,25,21,15,88,64,40,30.14,30.02,29.92,10,10,9,24,10,29,T,7,Snow,259
2011-12-8,38,32,26,27,23,18,78,63,47,30.18,30.13,30.06,10,10,8,21,10,25,T,6,,234
2011-12-9,35,28,20,28,21,12,85,70,55,30.38,30.20,30.12,10,5,1,18,9,24,0.07,7,Snow,284
2011-12-10,29,23,17,14,11,7,68,59,50,30.48,30.43,30.35,10,10,10,20,10,24,0.00,4,,240
2011-12-11,40,31,22,24,19,10,74,62,50,30.46,30.42,30.39,10,10,10,20,11,25,0.00,2,,197
2011-12-12,45,35,24,27,24,18,81,65,49,30.45,30.41,30.38,10,10,8,13,6,16,0.00,4,,188
2011-12-13,42,37,32,33,28,25,82,71,59,30.44,30.39,30.31,10,7,5,9,4,12,0.00,8,,172
2011-12-14,53,46,38,52,42,34,100,90,79,30.31,30.01,29.70,10,4,1,17,9,24,0.75,8,Rain,174
2011-12-15,57,46,34,54,42,19,93,75,56,30.12,29.73,29.59,10,8,2,35,20,45,0.36,8,Rain-Snow,257
2011-12-16,34,32,30,23,21,19,69,63,56,30.34,30.29,30.15,10,10,10,21,9,26,0.00,8,,318
2011-12-17,32,30,27,28,24,17,92,75,58,30.33,30.23,30.11,10,5,1,13,6,17,0.05,8,Snow,156
2011-12-18,40,36,31,32,27,24,85,72,59,30.21,30.11,29.90,10,9,7,20,9,28,0.00,6,,217
2011-12-19,47,41,34,38,32,23,76,68,59,30.21,29.97,29.81,10,10,7,22,12,28,T,7,,285
2011-12-20,36,32,28,31,25,19,89,75,61,30.23,30.07,29.85,10,9,1,17,7,20,0.02,8,Rain-Snow,95
2011-12-21,41,38,34,38,36,32,100,96,92,29.92,29.77,29.64,8,3,0,12,6,14,0.04,8,Fog-Rain,280
2011-12-22,41,37,32,38,33,24,92,81,69,30.21,30.05,29.91,10,8,5,17,7,24,T,8,Snow,295
2011-12-23,34,31,28,27,21,15,85,68,51,30.33,30.25,30.19,10,7,1,16,7,21,0.05,8,Snow,216
2011-12-24,38,34,30,28,26,23,85,70,54,30.36,30.24,30.10,10,8,2,18,11,25,0.01,5,Snow,198
2011-12-25,42,38,33,32,29,27,89,73,57,30.26,30.07,29.95,10,10,9,25,14,32,0.00,6,,259
2011-12-26,47,40,32,28,27,25,75,59,42,30.30,30.16,29.90,10,10,10,20,10,25,0.00,5,,217
2011-12-27,39,34,28,34,30,19,96,80,64,29.86,29.64,29.46,10,6,0,29,12,40,0.31,8,Fog-Rain-Snow,237
2011-12-28,29,26,22,20,16,13,81,72,62,30.06,29.98,29.88,10,10,10,23,8,31,0.00,6,,313
2011-12-29,40,33,26,34,30,21,85,80,75,29.91,29.65,29.53,10,7,1,16,8,24,0.04,8,Rain-Snow,173
2011-12-30,38,36,34,36,33,30,92,84,76,29.75,29.65,29.54,7,4,1,15,8,20,0.26,8,Rain,62
2011-12-31,43,40,36,34,32,30,92,80,67,30.01,29.89,29.67,10,7,2,16,8,21,0.00,7,,235